createdAt,value
2017-10-15T00:00:10.800Z,8.81
2017-10-15T00:01:10.833Z,8.87
2017-10-15T00:02:10.855Z,8.87
2017-10-15T00:03:10.883Z,8.93
2017-10-15T00:04:10.911Z,9.00
2017-10-15T00:05:10.937Z,9.05
2017-10-15T00:06:10.965Z,9.03
2017-10-15T00:07:10.993Z,8.99
2017-10-15T00:08:11.021Z,8.97
2017-10-15T00:09:11.047Z,8.99
2017-10-15T00:10:11.075Z,9.00
2017-10-15T00:11:11.102Z,8.96
2017-10-15T00:12:11.134Z,8.99
2017-10-15T00:13:11.157Z,9.05
2017-10-15T00:14:11.183Z,9.00
2017-10-15T00:15:11.212Z,9.02
2017-10-15T00:16:11.239Z,9.00
2017-10-15T00:17:11.266Z,8.99
2017-10-15T00:18:11.294Z,8.92
2017-10-15T00:19:11.322Z,8.93
2017-10-15T00:20:11.349Z,8.99
2017-10-15T00:21:11.379Z,9.05
2017-10-15T00:22:11.403Z,9.08
2017-10-15T00:23:11.431Z,9.18
2017-10-15T00:24:11.460Z,9.18
2017-10-15T00:25:11.486Z,9.22
2017-10-15T00:26:11.513Z,9.39
2017-10-15T00:27:11.541Z,9.31
2017-10-15T00:28:11.569Z,9.29
2017-10-15T00:29:11.595Z,9.34
2017-10-15T00:30:11.623Z,9.31
2017-10-15T00:31:11.650Z,9.33
2017-10-15T00:32:11.679Z,9.19
2017-10-15T00:33:11.706Z,9.21
2017-10-15T00:34:11.733Z,9.21
2017-10-15T00:35:11.760Z,9.19
2017-10-15T00:36:11.789Z,9.03
2017-10-15T00:37:11.816Z,8.97
2017-10-15T00:38:11.843Z,8.96
2017-10-15T00:39:11.870Z,9.03
2017-10-15T00:40:11.898Z,8.95
2017-10-15T00:41:11.925Z,8.97
2017-10-15T00:42:11.954Z,8.87
2017-10-15T00:43:11.981Z,8.84
2017-10-15T00:44:12.008Z,8.89
2017-10-15T00:45:12.036Z,9.00
2017-10-15T00:46:12.063Z,8.95
2017-10-15T00:47:12.091Z,8.96
2017-10-15T00:48:12.117Z,8.86
2017-10-15T00:49:12.144Z,8.74
2017-10-15T00:50:12.172Z,8.79
2017-10-15T00:51:12.200Z,8.75
2017-10-15T00:52:12.227Z,8.89
2017-10-15T00:53:12.255Z,8.74
2017-10-15T00:54:12.282Z,8.79
2017-10-15T00:55:12.310Z,8.78
2017-10-15T00:56:12.338Z,8.75
2017-10-15T00:57:12.365Z,8.77
2017-10-15T00:58:12.393Z,8.82
2017-10-15T00:59:12.420Z,8.79
2017-10-15T01:00:12.447Z,8.69
2017-10-15T01:01:12.475Z,8.63
2017-10-15T01:02:12.502Z,8.74
2017-10-15T01:03:12.529Z,8.72
2017-10-15T01:04:12.558Z,8.84
2017-10-15T01:05:12.593Z,8.71
2017-10-15T01:06:12.612Z,8.68
2017-10-15T01:07:12.649Z,8.66
2017-10-15T01:08:12.667Z,8.78
2017-10-15T01:09:12.696Z,8.74
2017-10-15T01:10:12.721Z,8.75
2017-10-15T01:11:12.749Z,8.87
2017-10-15T01:12:12.777Z,8.78
2017-10-15T01:13:12.803Z,8.78
2017-10-15T01:14:12.832Z,8.69
2017-10-15T01:15:12.859Z,8.69
2017-10-15T01:16:12.891Z,8.74
2017-10-15T01:17:12.912Z,8.75
2017-10-15T01:18:12.941Z,8.71
2017-10-15T01:19:12.969Z,8.60
2017-10-15T01:20:12.996Z,8.72
2017-10-15T01:21:13.022Z,8.68
2017-10-15T01:22:13.050Z,8.61
2017-10-15T01:23:13.082Z,8.59
2017-10-15T01:24:13.106Z,8.59
2017-10-15T01:25:13.132Z,8.71
2017-10-15T01:26:13.160Z,8.79
2017-10-15T01:27:13.187Z,8.81
2017-10-15T01:28:13.214Z,8.84
2017-10-15T01:29:13.241Z,8.86
2017-10-15T01:30:13.268Z,8.82
2017-10-15T01:31:13.296Z,8.72
2017-10-15T01:32:13.324Z,8.81
2017-10-15T01:33:13.351Z,8.71
2017-10-15T01:34:13.378Z,8.81
2017-10-15T01:35:13.408Z,8.89
2017-10-15T01:36:13.434Z,8.78
2017-10-15T01:37:13.460Z,8.75
2017-10-15T01:38:13.488Z,8.68
2017-10-15T01:39:13.514Z,8.87
2017-10-15T01:40:13.542Z,8.75
2017-10-15T01:41:13.569Z,8.78
2017-10-15T01:42:13.597Z,8.74
2017-10-15T01:43:13.625Z,8.87
2017-10-15T01:44:13.651Z,8.82
2017-10-15T01:45:13.679Z,8.81
2017-10-15T01:46:13.706Z,8.72
2017-10-15T01:47:13.734Z,8.77
2017-10-15T01:48:13.761Z,8.78
2017-10-15T01:49:13.788Z,8.78
2017-10-15T01:50:13.816Z,8.84
2017-10-15T01:51:13.843Z,8.78
2017-10-15T01:52:13.871Z,8.78
2017-10-15T01:53:13.897Z,8.86
2017-10-15T01:54:13.925Z,8.92
2017-10-15T01:55:13.952Z,8.95
2017-10-15T01:56:13.980Z,8.90
2017-10-15T01:57:14.006Z,8.90
2017-10-15T01:58:14.034Z,9.05
2017-10-15T01:59:14.063Z,9.02
2017-10-15T02:00:14.090Z,9.03
2017-10-15T02:01:14.116Z,9.02
2017-10-15T02:02:14.162Z,9.02
2017-10-15T02:03:14.171Z,8.96
2017-10-15T02:04:14.199Z,8.96
2017-10-15T02:05:14.226Z,8.82
2017-10-15T02:06:14.253Z,8.77
2017-10-15T02:07:14.281Z,8.99
2017-10-15T02:08:14.308Z,8.97
2017-10-15T02:09:14.334Z,8.97
2017-10-15T02:10:14.362Z,8.79
2017-10-15T02:11:14.390Z,8.82
2017-10-15T02:12:14.418Z,8.81
2017-10-15T02:13:14.444Z,8.78
2017-10-15T02:14:14.472Z,8.72
2017-10-15T02:15:14.499Z,8.78
2017-10-15T02:16:14.527Z,8.71
2017-10-15T02:17:14.555Z,8.74
2017-10-15T02:18:14.584Z,8.74
2017-10-15T02:19:14.609Z,8.74
2017-10-15T02:20:14.637Z,8.74
2017-10-15T02:21:14.663Z,8.69
2017-10-15T02:22:14.691Z,8.74
2017-10-15T02:23:14.719Z,8.82
2017-10-15T02:24:14.746Z,8.74
2017-10-15T02:25:14.773Z,8.78
2017-10-15T02:26:14.800Z,8.68
2017-10-15T02:27:14.829Z,8.68
2017-10-15T02:28:14.856Z,8.72
2017-10-15T02:29:14.883Z,8.66
2017-10-15T02:30:14.911Z,8.68
2017-10-15T02:31:14.938Z,8.63
2017-10-15T02:32:14.965Z,8.71
2017-10-15T02:33:14.992Z,8.74
2017-10-15T02:34:15.020Z,8.84
2017-10-15T02:35:15.047Z,8.77
2017-10-15T02:36:15.075Z,8.87
2017-10-15T02:37:15.101Z,8.82
2017-10-15T02:38:15.129Z,8.72
2017-10-15T02:39:15.158Z,8.78
2017-10-15T02:40:15.185Z,8.86
2017-10-15T02:41:15.210Z,8.81
2017-10-15T02:42:15.238Z,8.74
2017-10-15T02:43:15.266Z,8.78
2017-10-15T02:44:15.294Z,8.77
2017-10-15T02:45:15.319Z,8.77
2017-10-15T02:46:15.356Z,8.79
2017-10-15T02:47:15.379Z,8.78
2017-10-15T02:48:15.403Z,8.86
2017-10-15T02:49:15.430Z,8.95
2017-10-15T02:50:15.457Z,8.96
2017-10-15T02:51:15.485Z,8.81
2017-10-15T02:52:15.519Z,8.82
2017-10-15T02:53:15.538Z,8.72
2017-10-15T02:54:15.566Z,8.79
2017-10-15T02:55:15.593Z,8.78
2017-10-15T02:56:15.621Z,8.78
2017-10-15T02:57:15.648Z,8.72
2017-10-15T02:58:15.674Z,8.77
2017-10-15T02:59:15.703Z,8.75
2017-10-15T03:00:15.730Z,8.81
2017-10-15T03:01:15.757Z,8.72
2017-10-15T03:02:15.784Z,8.69
2017-10-15T03:03:15.813Z,8.69
2017-10-15T03:04:15.840Z,8.71
2017-10-15T03:05:15.866Z,8.68
2017-10-15T03:06:15.894Z,8.74
2017-10-15T03:07:15.921Z,8.87
2017-10-15T03:08:15.947Z,8.93
2017-10-15T03:09:15.975Z,8.95
2017-10-15T03:10:16.003Z,9.03
2017-10-15T03:11:16.030Z,8.96
2017-10-15T03:12:16.058Z,8.93
2017-10-15T03:13:16.084Z,8.86
2017-10-15T03:14:16.112Z,8.92
2017-10-15T03:15:16.141Z,8.99
2017-10-15T03:16:16.168Z,8.96
2017-10-15T03:17:16.194Z,8.89
2017-10-15T03:18:16.221Z,9.08
2017-10-15T03:19:16.249Z,9.16
2017-10-15T03:20:16.277Z,9.09
2017-10-15T03:21:16.302Z,9.16
2017-10-15T03:22:16.331Z,9.02
2017-10-15T03:23:16.358Z,9.08
2017-10-15T03:24:16.387Z,9.08
2017-10-15T03:25:16.412Z,9.08
2017-10-15T03:26:16.441Z,9.02
2017-10-15T03:27:16.468Z,9.11
2017-10-15T03:28:16.496Z,9.12
2017-10-15T03:29:16.523Z,9.08
2017-10-15T03:30:16.551Z,9.03
2017-10-15T03:31:16.576Z,9.16
2017-10-15T03:32:16.605Z,9.13
2017-10-15T03:33:16.631Z,9.08
2017-10-15T03:34:16.665Z,9.13
2017-10-15T03:35:16.687Z,9.11
2017-10-15T03:36:16.725Z,9.12
2017-10-15T03:37:16.741Z,8.96
2017-10-15T03:38:16.769Z,9.00
2017-10-15T03:39:16.797Z,9.03
2017-10-15T03:40:16.824Z,9.02
2017-10-15T03:41:16.856Z,9.05
2017-10-15T03:42:16.879Z,9.08
2017-10-15T03:43:16.907Z,9.15
2017-10-15T03:44:16.935Z,8.99
2017-10-15T03:45:16.960Z,9.00
2017-10-15T03:46:16.988Z,9.00
2017-10-15T03:47:17.016Z,8.99
2017-10-15T03:48:17.045Z,9.03
2017-10-15T03:49:17.070Z,9.00
2017-10-15T03:50:17.098Z,9.03
2017-10-15T03:51:17.126Z,8.99
2017-10-15T03:52:17.153Z,8.82
2017-10-15T03:53:17.181Z,8.89
2017-10-15T03:54:17.208Z,8.78
2017-10-15T03:55:17.235Z,8.79
2017-10-15T03:56:17.263Z,8.86
2017-10-15T03:57:17.291Z,8.72
2017-10-15T03:58:17.318Z,8.75
2017-10-15T03:59:17.345Z,8.78
2017-10-15T04:00:17.374Z,8.72
2017-10-15T04:01:17.400Z,8.78
2017-10-15T04:02:17.428Z,8.82
2017-10-15T04:03:17.459Z,8.72
2017-10-15T04:04:17.483Z,8.82
2017-10-15T04:05:17.510Z,8.78
2017-10-15T04:06:17.538Z,8.89
2017-10-15T04:07:17.565Z,8.77
2017-10-15T04:08:17.592Z,8.87
2017-10-15T04:09:17.621Z,8.79
2017-10-15T04:10:17.647Z,8.78
2017-10-15T04:11:17.675Z,8.78
2017-10-15T04:12:17.703Z,8.75
2017-10-15T04:13:17.730Z,8.86
2017-10-15T04:14:17.757Z,8.79
2017-10-15T04:15:17.784Z,8.96
2017-10-15T04:16:17.818Z,8.96
2017-10-15T04:17:17.839Z,8.93
2017-10-15T04:18:17.867Z,8.93
2017-10-15T04:19:17.894Z,9.02
2017-10-15T04:20:17.922Z,9.02
2017-10-15T04:21:17.948Z,9.12
2017-10-15T04:22:17.977Z,9.12
2017-10-15T04:23:18.004Z,9.16
2017-10-15T04:24:18.032Z,9.26
2017-10-15T04:25:18.058Z,9.21
2017-10-15T04:26:18.086Z,9.19
2017-10-15T04:27:18.113Z,9.21
2017-10-15T04:28:18.141Z,9.22
2017-10-15T04:29:18.167Z,9.18
2017-10-15T04:30:18.196Z,9.24
2017-10-15T04:31:18.223Z,9.29
2017-10-15T04:32:18.251Z,9.16
2017-10-15T04:33:18.277Z,9.16
2017-10-15T04:34:18.306Z,8.93
2017-10-15T04:35:18.334Z,8.89
2017-10-15T04:36:18.361Z,8.82
2017-10-15T04:37:18.387Z,8.87
2017-10-15T04:38:18.416Z,8.96
2017-10-15T04:39:18.444Z,8.81
2017-10-15T04:40:18.471Z,8.87
2017-10-15T04:41:18.505Z,8.84
2017-10-15T04:42:18.526Z,8.89
2017-10-15T04:43:18.553Z,8.99
2017-10-15T04:44:18.581Z,9.05
2017-10-15T04:45:18.607Z,9.02
2017-10-15T04:46:18.636Z,9.03
2017-10-15T04:47:18.663Z,9.11
2017-10-15T04:48:18.691Z,9.02
2017-10-15T04:49:18.718Z,9.12
2017-10-15T04:50:18.745Z,9.18
2017-10-15T04:51:18.774Z,9.15
2017-10-15T04:52:18.802Z,9.12
2017-10-15T04:53:18.828Z,9.22
2017-10-15T04:54:18.856Z,9.15
2017-10-15T04:55:18.888Z,9.08
2017-10-15T04:56:18.911Z,9.09
2017-10-15T04:57:18.938Z,9.00
2017-10-15T04:58:18.965Z,9.13
2017-10-15T04:59:18.994Z,9.09
2017-10-15T05:00:19.021Z,9.12
2017-10-15T05:01:19.048Z,9.08
2017-10-15T05:02:19.076Z,9.03
2017-10-15T05:03:19.104Z,9.03
2017-10-15T05:04:19.132Z,9.11
2017-10-15T05:05:19.158Z,9.18
2017-10-15T05:06:19.186Z,9.24
2017-10-15T05:07:19.214Z,9.30
2017-10-15T05:08:19.242Z,9.40
2017-10-15T05:09:19.269Z,9.36
2017-10-15T05:10:19.296Z,9.39
2017-10-15T05:11:19.323Z,9.24
2017-10-15T05:12:19.352Z,9.31
2017-10-15T05:13:19.379Z,9.22
2017-10-15T05:14:19.406Z,9.21
2017-10-15T05:15:19.434Z,9.13
2017-10-15T05:16:19.463Z,9.09
2017-10-15T05:17:19.489Z,9.15
2017-10-15T05:18:19.516Z,9.34
2017-10-15T05:19:19.545Z,9.33
2017-10-15T05:20:19.572Z,9.33
2017-10-15T05:21:19.598Z,9.26
2017-10-15T05:22:19.626Z,9.15
2017-10-15T05:23:19.654Z,9.13
2017-10-15T05:24:19.681Z,9.19
2017-10-15T05:25:19.709Z,9.29
2017-10-15T05:26:19.737Z,9.45
2017-10-15T05:27:19.763Z,9.48
2017-10-15T05:28:19.792Z,9.30
2017-10-15T05:29:19.820Z,9.24
2017-10-15T05:30:19.847Z,9.29
2017-10-15T05:31:19.874Z,9.30
2017-10-15T05:32:19.902Z,9.39
2017-10-15T05:33:19.928Z,9.42
2017-10-15T05:34:19.957Z,9.48
2017-10-15T05:35:19.984Z,9.54
2017-10-15T05:36:20.012Z,9.40
2017-10-15T05:37:20.040Z,9.44
2017-10-15T05:38:20.066Z,9.45
2017-10-15T05:39:20.095Z,9.39
2017-10-15T05:40:20.122Z,9.30
2017-10-15T05:41:20.148Z,9.15
2017-10-15T05:42:20.177Z,9.19
2017-10-15T05:43:20.204Z,9.21
2017-10-15T05:44:20.232Z,9.16
2017-10-15T05:45:20.258Z,9.13
2017-10-15T05:46:20.287Z,9.19
2017-10-15T05:47:20.326Z,9.27
2017-10-15T05:48:20.342Z,9.33
2017-10-15T05:49:20.393Z,9.26
2017-10-15T05:50:20.397Z,9.42
2017-10-15T05:51:20.424Z,9.51
2017-10-15T05:52:20.453Z,9.64
2017-10-15T05:53:20.479Z,9.74
2017-10-15T05:54:20.510Z,9.85
2017-10-15T05:55:20.534Z,10.05
2017-10-15T05:56:20.562Z,10.15
2017-10-15T05:57:20.589Z,10.34
2017-10-15T05:58:20.616Z,10.45
2017-10-15T05:59:20.647Z,10.59
2017-10-15T06:00:20.673Z,10.69
2017-10-15T06:01:20.701Z,10.84
2017-10-15T06:02:20.728Z,10.98
2017-10-15T06:03:20.757Z,11.05
2017-10-15T06:04:20.784Z,11.08
2017-10-15T06:05:20.810Z,11.16
2017-10-15T06:06:20.840Z,11.33
2017-10-15T06:07:20.888Z,11.43
2017-10-15T06:08:20.894Z,11.51
2017-10-15T06:09:20.923Z,11.55
2017-10-15T06:10:20.950Z,11.71
2017-10-15T06:11:20.979Z,12.11
2017-10-15T06:12:21.007Z,12.39
2017-10-15T06:13:21.035Z,12.44
2017-10-15T06:14:21.063Z,12.69
2017-10-15T06:15:21.092Z,12.84
2017-10-15T06:16:21.119Z,13.11
2017-10-15T06:17:21.148Z,13.23
2017-10-15T06:18:21.176Z,13.39
2017-10-15T06:19:21.204Z,13.55
2017-10-15T06:20:21.234Z,13.49
2017-10-15T06:21:21.262Z,13.43
2017-10-15T06:22:21.290Z,13.39
2017-10-15T06:23:21.319Z,13.23
2017-10-15T06:24:21.348Z,13.19
2017-10-15T06:25:21.376Z,13.27
2017-10-15T06:26:21.406Z,13.52
2017-10-15T06:27:21.435Z,13.61
2017-10-15T06:28:21.463Z,13.83
2017-10-15T06:29:21.493Z,14.04
2017-10-15T06:30:21.521Z,14.20
2017-10-15T06:31:21.551Z,14.44
2017-10-15T06:32:21.580Z,14.71
2017-10-15T06:33:21.609Z,14.92
2017-10-15T06:34:21.639Z,15.02
2017-10-15T06:35:21.669Z,15.05
2017-10-15T06:36:21.705Z,15.02
2017-10-15T06:37:21.729Z,14.92
2017-10-15T06:38:21.759Z,14.97
2017-10-15T06:39:21.788Z,14.92
2017-10-15T06:40:21.833Z,15.04
2017-10-15T06:41:21.848Z,15.19
2017-10-15T06:42:21.878Z,15.29
2017-10-15T06:43:21.907Z,15.37
2017-10-15T06:44:21.939Z,15.37
2017-10-15T06:45:21.968Z,15.29
2017-10-15T06:46:21.999Z,15.26
2017-10-15T06:47:22.030Z,15.26
2017-10-15T06:48:22.060Z,15.22
2017-10-15T06:49:22.090Z,15.22
2017-10-15T06:50:22.121Z,15.30
2017-10-15T06:51:22.151Z,15.27
2017-10-15T06:52:22.183Z,15.43
2017-10-15T06:53:22.213Z,15.47
2017-10-15T06:54:22.244Z,15.35
2017-10-15T06:55:22.274Z,15.26
2017-10-15T06:56:22.305Z,15.32
2017-10-15T06:57:22.336Z,15.19
2017-10-15T06:58:22.367Z,15.17
2017-10-15T06:59:22.398Z,15.26
2017-10-15T07:00:22.429Z,15.30
2017-10-15T07:01:22.459Z,15.26
2017-10-15T07:02:22.491Z,15.30
2017-10-15T07:03:22.524Z,15.32
2017-10-15T07:04:22.554Z,15.30
2017-10-15T07:05:22.584Z,15.22
2017-10-15T07:06:22.620Z,15.02
2017-10-15T07:07:22.648Z,15.15
2017-10-15T07:08:22.680Z,15.47
2017-10-15T07:09:22.711Z,15.55
2017-10-15T07:10:22.743Z,15.80
2017-10-15T07:11:22.778Z,15.84
2017-10-15T07:12:22.807Z,16.03
2017-10-15T07:13:22.841Z,16.13
2017-10-15T07:14:22.869Z,16.22
2017-10-15T07:15:22.901Z,16.21
2017-10-15T07:16:22.934Z,16.32
2017-10-15T07:17:22.966Z,16.51
2017-10-15T07:18:22.998Z,16.55
2017-10-15T07:19:23.030Z,16.79
2017-10-15T07:20:23.063Z,16.72
2017-10-15T07:21:23.094Z,16.62
2017-10-15T07:22:23.127Z,16.58
2017-10-15T07:23:23.160Z,16.77
2017-10-15T07:24:23.193Z,16.92
2017-10-15T07:25:23.225Z,17.12
2017-10-15T07:26:23.257Z,17.14
2017-10-15T07:27:23.289Z,17.27
2017-10-15T07:28:23.323Z,17.28
2017-10-15T07:29:23.355Z,16.92
2017-10-15T07:30:23.389Z,16.65
2017-10-15T07:31:23.423Z,16.86
2017-10-15T07:32:23.455Z,17.05
2017-10-15T07:33:23.487Z,17.20
2017-10-15T07:34:23.521Z,17.49
2017-10-15T07:35:23.556Z,17.78
2017-10-15T07:36:23.589Z,18.06
2017-10-15T07:37:23.621Z,17.79
2017-10-15T07:38:23.655Z,17.66
2017-10-15T07:39:23.688Z,17.49
2017-10-15T07:40:23.723Z,17.47
2017-10-15T07:41:23.756Z,17.54
2017-10-15T07:42:23.790Z,17.31
2017-10-15T07:43:23.832Z,17.05
2017-10-15T07:44:23.863Z,16.73
2017-10-15T07:45:23.891Z,16.58
2017-10-15T07:46:23.926Z,16.26
2017-10-15T07:47:23.961Z,15.91
2017-10-15T07:48:23.995Z,16.03
2017-10-15T07:49:24.028Z,16.39
2017-10-15T07:50:24.063Z,16.43
2017-10-15T07:51:24.097Z,16.57
2017-10-15T07:52:24.132Z,16.72
2017-10-15T07:53:24.167Z,16.91
2017-10-15T07:54:24.201Z,17.05
2017-10-15T07:55:24.246Z,17.10
2017-10-15T07:56:24.270Z,16.99
2017-10-15T07:57:24.304Z,16.82
2017-10-15T07:58:24.340Z,16.41
2017-10-15T07:59:24.376Z,15.65
2017-10-15T08:00:24.409Z,15.17
2017-10-15T08:01:24.444Z,14.87
2017-10-15T08:02:24.480Z,14.74
2017-10-15T08:03:24.514Z,14.79
2017-10-15T08:04:24.551Z,14.63
2017-10-15T08:05:24.586Z,14.34
2017-10-15T08:06:24.621Z,14.38
2017-10-15T08:07:24.657Z,14.56
2017-10-15T08:08:24.693Z,14.44
2017-10-15T08:09:24.727Z,14.55
2017-10-15T08:10:24.765Z,14.99
2017-10-15T08:11:24.798Z,15.35
2017-10-15T08:12:24.835Z,15.54
2017-10-15T08:13:24.869Z,15.81
2017-10-15T08:14:24.906Z,16.05
2017-10-15T08:15:24.941Z,16.47
2017-10-15T08:16:24.977Z,16.59
2017-10-15T08:17:25.013Z,16.74
2017-10-15T08:18:25.051Z,16.82
2017-10-15T08:19:25.085Z,16.83
2017-10-15T08:20:25.122Z,16.74
2017-10-15T08:21:25.163Z,16.82
2017-10-15T08:22:25.193Z,16.59
2017-10-15T08:23:25.229Z,16.31
2017-10-15T08:24:25.266Z,16.62
2017-10-15T08:25:25.302Z,16.69
2017-10-15T08:26:25.342Z,17.05
2017-10-15T08:27:25.375Z,17.24
2017-10-15T08:28:25.411Z,17.32
2017-10-15T08:29:25.447Z,17.47
2017-10-15T08:30:25.484Z,17.60
2017-10-15T08:31:25.522Z,17.72
2017-10-15T08:32:25.558Z,17.73
2017-10-15T08:33:25.595Z,17.82
2017-10-15T08:34:25.631Z,17.78
2017-10-15T08:35:25.669Z,17.07
2017-10-15T08:36:25.705Z,16.06
2017-10-15T08:37:25.743Z,15.54
2017-10-15T08:38:25.788Z,15.45
2017-10-15T08:39:25.817Z,15.33
2017-10-15T08:40:25.861Z,15.08
2017-10-15T08:41:25.892Z,14.92
2017-10-15T08:42:25.930Z,15.08
2017-10-15T08:43:25.967Z,14.93
2017-10-15T08:44:26.005Z,15.04
2017-10-15T08:45:26.041Z,15.39
2017-10-15T08:46:26.101Z,15.85
2017-10-15T08:47:26.116Z,16.06
2017-10-15T08:48:26.155Z,16.59
2017-10-15T08:49:26.200Z,17.02
2017-10-15T08:50:26.228Z,16.46
2017-10-15T08:51:26.267Z,16.59
2017-10-15T08:52:26.305Z,16.77
2017-10-15T08:53:26.342Z,16.87
2017-10-15T08:54:26.380Z,16.94
2017-10-15T08:55:26.418Z,17.22
2017-10-15T08:56:26.456Z,16.99
2017-10-15T08:57:26.493Z,16.69
2017-10-15T08:58:26.532Z,16.10
2017-10-15T08:59:26.570Z,15.88
2017-10-15T09:00:26.608Z,16.17
2017-10-15T09:01:26.646Z,16.29
2017-10-15T09:02:26.684Z,16.39
2017-10-15T09:03:26.722Z,16.28
2017-10-15T09:04:26.761Z,16.16
2017-10-15T09:05:26.798Z,15.84
2017-10-15T09:06:26.837Z,15.57
2017-10-15T09:07:26.876Z,15.45
2017-10-15T09:08:26.914Z,15.84
2017-10-15T09:09:26.952Z,16.31
2017-10-15T09:10:26.991Z,16.43
2017-10-15T09:11:27.029Z,16.79
2017-10-15T09:12:27.070Z,17.07
2017-10-15T09:13:27.107Z,17.50
2017-10-15T09:14:27.146Z,17.54
2017-10-15T09:15:27.186Z,17.41
2017-10-15T09:16:27.225Z,17.23
2017-10-15T09:17:27.263Z,16.50
2017-10-15T09:18:27.303Z,16.24
2017-10-15T09:19:27.342Z,16.34
2017-10-15T09:20:27.400Z,16.10
2017-10-15T09:21:27.422Z,15.91
2017-10-15T09:22:27.460Z,15.90
2017-10-15T09:23:27.500Z,16.02
2017-10-15T09:24:27.542Z,15.72
2017-10-15T09:25:27.596Z,15.84
2017-10-15T09:26:27.617Z,15.65
2017-10-15T09:27:27.658Z,15.44
2017-10-15T09:28:27.697Z,15.07
2017-10-15T09:29:27.736Z,15.44
2017-10-15T09:30:27.777Z,15.66
2017-10-15T09:31:27.822Z,16.08
2017-10-15T09:32:27.856Z,16.46
2017-10-15T09:33:27.894Z,16.59
2017-10-15T09:34:27.935Z,17.02
2017-10-15T09:35:27.975Z,16.91
2017-10-15T09:36:28.016Z,17.09
2017-10-15T09:37:28.054Z,17.12
2017-10-15T09:38:28.095Z,17.19
2017-10-15T09:39:28.135Z,16.89
2017-10-15T09:40:28.174Z,16.66
2017-10-15T09:41:28.215Z,16.80
2017-10-15T09:42:28.255Z,16.84
2017-10-15T09:43:28.296Z,16.95
2017-10-15T09:44:28.336Z,17.20
2017-10-15T09:45:28.376Z,17.46
2017-10-15T09:46:28.418Z,17.53
2017-10-15T09:47:28.462Z,17.41
2017-10-15T09:48:28.498Z,16.43
2017-10-15T09:49:28.538Z,15.69
2017-10-15T09:50:28.579Z,15.22
2017-10-15T09:51:28.620Z,14.89
2017-10-15T09:52:28.664Z,14.41
2017-10-15T09:53:28.701Z,14.28
2017-10-15T09:54:28.742Z,14.49
2017-10-15T09:55:28.782Z,14.49
2017-10-15T09:56:28.823Z,14.61
2017-10-15T09:57:28.863Z,14.78
2017-10-15T09:58:28.904Z,15.19
2017-10-15T09:59:28.945Z,15.52
2017-10-15T10:00:28.986Z,15.67
2017-10-15T10:01:29.026Z,15.29
2017-10-15T10:02:29.068Z,14.90
2017-10-15T10:03:29.108Z,14.74
2017-10-15T10:04:29.150Z,14.58
2017-10-15T10:05:29.196Z,14.62
2017-10-15T10:06:29.231Z,14.87
2017-10-15T10:07:29.272Z,15.04
2017-10-15T10:08:29.313Z,15.57
2017-10-15T10:09:29.354Z,15.52
2017-10-15T10:10:29.394Z,15.85
2017-10-15T10:11:29.437Z,16.31
2017-10-15T10:12:29.478Z,16.21
2017-10-15T10:13:29.527Z,16.16
2017-10-15T10:14:29.560Z,16.31
2017-10-15T10:15:29.602Z,16.62
2017-10-15T10:16:29.645Z,16.47
2017-10-15T10:17:29.684Z,16.28
2017-10-15T10:18:29.726Z,16.39
2017-10-15T10:19:29.768Z,16.65
2017-10-15T10:20:29.811Z,16.77
2017-10-15T10:21:29.852Z,17.10
2017-10-15T10:22:29.894Z,17.05
2017-10-15T10:23:29.936Z,16.91
2017-10-15T10:24:29.979Z,16.82
2017-10-15T10:25:30.020Z,17.01
2017-10-15T10:26:30.062Z,17.02
2017-10-15T10:27:30.105Z,17.24
2017-10-15T10:28:30.148Z,17.19
2017-10-15T10:29:30.189Z,17.50
2017-10-15T10:30:30.233Z,17.50
2017-10-15T10:31:30.276Z,17.54
2017-10-15T10:32:30.318Z,17.53
2017-10-15T10:33:30.360Z,17.50
2017-10-15T10:34:30.404Z,17.32
2017-10-15T10:35:30.445Z,17.23
2017-10-15T10:36:30.489Z,16.86
2017-10-15T10:37:30.531Z,16.36
2017-10-15T10:38:30.573Z,16.62
2017-10-15T10:39:30.616Z,16.84
2017-10-15T10:40:30.659Z,16.91
2017-10-15T10:41:30.702Z,16.87
2017-10-15T10:42:30.745Z,17.30
2017-10-15T10:43:30.788Z,17.30
2017-10-15T10:44:30.832Z,17.14
2017-10-15T10:45:30.874Z,17.31
2017-10-15T10:46:30.916Z,17.30
2017-10-15T10:47:30.960Z,17.35
2017-10-15T10:48:31.004Z,17.56
2017-10-15T10:49:31.046Z,17.80
2017-10-15T10:50:31.090Z,17.65
2017-10-15T10:51:31.133Z,17.66
2017-10-15T10:52:31.176Z,17.46
2017-10-15T10:53:31.219Z,16.44
2017-10-15T10:54:31.263Z,15.87
2017-10-15T10:55:31.305Z,15.05
2017-10-15T10:56:31.350Z,15.15
2017-10-15T10:57:31.392Z,15.45
2017-10-15T10:58:31.435Z,15.96
2017-10-15T10:59:31.479Z,16.05
2017-10-15T11:00:31.523Z,15.94
2017-10-15T11:01:31.565Z,15.45
2017-10-15T11:02:31.609Z,15.59
2017-10-15T11:03:31.653Z,15.08
2017-10-15T11:04:31.696Z,15.04
2017-10-15T11:05:31.738Z,14.94
2017-10-15T11:06:31.782Z,14.99
2017-10-15T11:07:31.833Z,15.37
2017-10-15T11:08:31.869Z,15.29
2017-10-15T11:09:31.911Z,15.15
2017-10-15T11:10:31.954Z,15.12
2017-10-15T11:11:31.998Z,15.57
2017-10-15T11:12:32.041Z,16.08
2017-10-15T11:13:32.083Z,16.44
2017-10-15T11:14:32.126Z,16.22
2017-10-15T11:15:32.177Z,15.91
2017-10-15T11:16:32.213Z,16.34
2017-10-15T11:17:32.256Z,16.25
2017-10-15T11:18:32.298Z,16.62
2017-10-15T11:19:32.342Z,16.84
2017-10-15T11:20:32.386Z,16.68
2017-10-15T11:21:32.438Z,16.74
2017-10-15T11:22:32.472Z,16.91
2017-10-15T11:23:32.515Z,16.84
2017-10-15T11:24:32.558Z,16.92
2017-10-15T11:25:32.600Z,16.91
2017-10-15T11:26:32.644Z,16.98
2017-10-15T11:27:32.688Z,16.47
2017-10-15T11:28:32.753Z,15.91
2017-10-15T11:29:32.773Z,15.41
2017-10-15T11:30:32.817Z,15.23
2017-10-15T11:31:32.860Z,15.25
2017-10-15T11:32:32.905Z,14.89
2017-10-15T11:33:32.946Z,14.70
2017-10-15T11:34:32.990Z,14.44
2017-10-15T11:35:33.032Z,14.53
2017-10-15T11:36:33.076Z,14.86
2017-10-15T11:37:33.119Z,14.70
2017-10-15T11:38:33.161Z,14.25
2017-10-15T11:39:33.207Z,14.23
2017-10-15T11:40:33.248Z,14.28
2017-10-15T11:41:33.290Z,13.68
2017-10-15T11:42:33.334Z,13.46
2017-10-15T11:43:33.376Z,13.76
2017-10-15T11:44:33.420Z,13.73
2017-10-15T11:45:33.467Z,13.47
2017-10-15T11:46:33.505Z,13.61
2017-10-15T11:47:33.548Z,13.78
2017-10-15T11:48:33.591Z,13.52
2017-10-15T11:49:33.633Z,13.61
2017-10-15T11:50:33.676Z,13.70
2017-10-15T11:51:33.718Z,13.89
2017-10-15T11:52:33.762Z,13.83
2017-10-15T11:53:33.801Z,14.11
2017-10-15T11:54:33.845Z,14.40
2017-10-15T11:55:33.887Z,14.58
2017-10-15T11:56:33.929Z,14.51
2017-10-15T11:57:33.972Z,15.04
2017-10-15T11:58:34.013Z,15.18
2017-10-15T11:59:34.055Z,15.57
2017-10-15T12:00:34.097Z,15.62
2017-10-15T12:01:34.139Z,15.48
2017-10-15T12:02:34.182Z,15.67
2017-10-15T12:03:34.227Z,15.85
2017-10-15T12:04:34.266Z,15.91
2017-10-15T12:05:34.307Z,15.60
2017-10-15T12:06:34.349Z,15.32
2017-10-15T12:07:34.391Z,15.50
2017-10-15T12:08:34.433Z,15.72
2017-10-15T12:09:34.475Z,15.88
2017-10-15T12:10:34.517Z,15.62
2017-10-15T12:11:34.559Z,15.04
2017-10-15T12:12:34.600Z,14.53
2017-10-15T12:13:34.642Z,14.63
2017-10-15T12:14:34.692Z,14.63
2017-10-15T12:15:34.729Z,15.08
2017-10-15T12:16:34.769Z,14.99
2017-10-15T12:17:34.810Z,14.59
2017-10-15T12:18:34.852Z,14.87
2017-10-15T12:19:34.894Z,14.58
2017-10-15T12:20:34.936Z,14.13
2017-10-15T12:21:34.976Z,14.05
2017-10-15T12:22:35.018Z,14.49
2017-10-15T12:23:35.059Z,14.68
2017-10-15T12:24:35.102Z,14.85
2017-10-15T12:25:35.143Z,14.89
2017-10-15T12:26:35.184Z,15.02
2017-10-15T12:27:35.226Z,14.89
2017-10-15T12:28:35.267Z,14.56
2017-10-15T12:29:35.308Z,14.87
2017-10-15T12:30:35.349Z,15.19
2017-10-15T12:31:35.390Z,14.96
2017-10-15T12:32:35.434Z,14.73
2017-10-15T12:33:35.472Z,14.28
2017-10-15T12:34:35.513Z,14.31
2017-10-15T12:35:35.559Z,14.26
2017-10-15T12:36:35.596Z,14.30
2017-10-15T12:37:35.636Z,14.22
2017-10-15T12:38:35.677Z,13.83
2017-10-15T12:39:35.718Z,13.55
2017-10-15T12:40:35.758Z,13.52
2017-10-15T12:41:35.798Z,13.42
2017-10-15T12:42:35.847Z,13.46
2017-10-15T12:43:35.880Z,13.61
2017-10-15T12:44:35.920Z,13.57
2017-10-15T12:45:35.960Z,13.76
2017-10-15T12:46:36.003Z,14.25
2017-10-15T12:47:36.041Z,14.26
2017-10-15T12:48:36.081Z,14.36
2017-10-15T12:49:36.119Z,14.53
2017-10-15T12:50:36.164Z,14.58
2017-10-15T12:51:36.201Z,14.11
2017-10-15T12:52:36.242Z,13.80
2017-10-15T12:53:36.280Z,13.85
2017-10-15T12:54:36.320Z,13.55
2017-10-15T12:55:36.360Z,13.64
2017-10-15T12:56:36.400Z,13.80
2017-10-15T12:57:36.438Z,13.62
2017-10-15T12:58:36.479Z,13.62
2017-10-15T12:59:36.526Z,13.87
2017-10-15T13:00:36.557Z,14.19
2017-10-15T13:01:36.602Z,14.37
2017-10-15T13:02:36.636Z,14.37
2017-10-15T13:03:36.677Z,14.36
2017-10-15T13:04:36.717Z,14.55